Time;durP1;ratioP1;P1;durP2;ratioP2;P2;SDS_P1;SDS_P2;PMS_P1;PMS_P2;Temp;Humidity;BMP_temperature;BMP_pressure;BME280_temperature;BME280_humidity;BME280_pressure;Samples;Min_cycle;Max_cycle;Signal;HPM_P1;HPM_P2
2020/12/26 00:01:18;;;;;;;31.30;2.50;;;;;;;1.03;67.28;96863.97;5030263;28;20056;-66
2020/12/26 00:03:47;;;;;;;23.05;2.08;;;;;;;1.08;68.34;96858.69;5030611;28;20052;-66
2020/12/26 00:06:14;;;;;;;34.70;2.70;;;;;;;1.14;68.76;96865.75;5030085;28;20046;-69
2020/12/26 00:08:40;;;;;;;28.83;2.13;;;;;;;1.12;67.14;96861.69;5030487;28;20552;-66
2020/12/26 00:11:08;;;;;;;29.83;2.25;;;;;;;1.15;67.24;96859.34;5030317;28;20512;-69
2020/12/26 00:13:34;;;;;;;26.88;2.08;;;;;;;1.17;67.11;96857.22;5030631;28;20046;-66
2020/12/26 00:16:04;;;;;;;22.55;1.85;;;;;;;1.20;66.48;96858.59;5030598;28;20056;-68
2020/12/26 00:18:29;;;;;;;18.85;1.80;;;;;;;1.21;65.69;96861.03;5030583;28;20053;-66
2020/12/26 00:20:55;;;;;;;21.38;1.95;;;;;;;1.25;65.60;96854.13;5030482;28;20099;-68
2020/12/26 00:23:21;;;;;;;20.42;1.77;;;;;;;1.28;64.88;96856.31;5029859;28;20512;-68
2020/12/26 00:25:47;;;;;;;31.50;2.45;;;;;;;1.33;65.17;96852.09;5030649;28;20045;-68
2020/12/26 00:28:13;;;;;;;25.25;2.10;;;;;;;1.36;65.12;96855.09;5029965;28;20054;-68
2020/12/26 00:30:39;;;;;;;26.35;2.17;;;;;;;1.39;64.10;96851.09;5030489;28;20092;-68
2020/12/26 00:33:06;;;;;;;21.90;2.13;;;;;;;1.42;64.42;96845.25;5029683;28;20050;-68
2020/12/26 00:35:32;;;;;;;35.10;2.28;;;;;;;1.46;65.05;96847.19;5030253;28;20500;-68
2020/12/26 00:37:58;;;;;;;22.75;1.77;;;;;;;1.48;65.15;96854.97;5030223;28;20061;-68
2020/12/26 00:40:24;;;;;;;29.92;2.58;;;;;;;1.48;64.92;96850.41;5032999;28;20128;-68
2020/12/26 00:42:50;;;;;;;23.42;2.10;;;;;;;1.52;63.26;96856.13;5034032;28;20500;-68
2020/12/26 00:45:16;;;;;;;24.55;2.00;;;;;;;1.53;62.74;96852.38;5033435;28;20045;-68
2020/12/26 00:47:43;;;;;;;26.17;2.20;;;;;;;1.42;61.78;96855.97;5034090;28;20053;-67
2020/12/26 00:50:09;;;;;;;21.58;2.17;;;;;;;1.35;62.13;96855.31;5033276;28;20046;-68
2020/12/26 00:52:35;;;;;;;31.15;2.38;;;;;;;1.33;63.51;96857.44;5033676;28;20041;-66
2020/12/26 00:55:02;;;;;;;22.73;2.25;;;;;;;1.37;64.45;96870.13;5033491;28;20481;-67
2020/12/26 00:57:28;;;;;;;30.60;2.40;;;;;;;1.38;63.94;96868.25;5033910;28;20049;-66
2020/12/26 00:59:54;;;;;;;29.35;2.38;;;;;;;1.34;62.35;96875.16;5033824;28;20436;-66
2020/12/26 01:02:20;;;;;;;24.13;2.00;;;;;;;1.32;62.99;96882.66;5032986;28;20420;-66
2020/12/26 01:04:46;;;;;;;25.52;2.40;;;;;;;1.24;64.05;96881.19;5033723;28;20515;-66
2020/12/26 01:07:13;;;;;;;23.23;2.78;;;;;;;1.19;65.64;96889.97;5032593;28;20125;-66
2020/12/26 01:09:39;;;;;;;15.40;2.00;;;;;;;1.18;65.91;96893.72;5033655;28;20057;-66
2020/12/26 01:12:05;;;;;;;8.15;2.17;;;;;;;1.08;65.27;96908.84;5033069;28;20046;-67
2020/12/26 01:14:31;;;;;;;27.92;3.15;;;;;;;0.87;67.36;96916.53;5033828;28;20131;-66
2020/12/26 01:16:57;;;;;;;34.40;3.80;;;;;;;0.82;69.58;96916.44;5033169;28;20050;-66
2020/12/26 01:19:23;;;;;;;35.22;3.80;;;;;;;0.76;71.05;96923.59;5033048;28;20041;-66
2020/12/26 01:21:50;;;;;;;34.00;3.95;;;;;;;0.78;72.36;96915.31;5033396;28;20045;-66
2020/12/26 01:24:17;;;;;;;35.15;4.20;;;;;;;0.84;73.40;96913.56;5032725;28;20155;-66
2020/12/26 01:26:45;;;;;;;24.45;3.95;;;;;;;0.84;73.50;96916.22;5033458;28;20055;-66
2020/12/26 01:29:11;;;;;;;26.38;3.88;;;;;;;0.88;73.73;96917.34;5032648;28;20045;-66
2020/12/26 01:31:37;;;;;;;25.27;4.10;;;;;;;0.89;73.85;96922.50;5032976;28;20135;-68
2020/12/26 01:34:03;;;;;;;11.52;3.55;;;;;;;0.89;74.63;96916.28;5032778;28;20076;-68
2020/12/26 01:36:29;;;;;;;30.33;3.95;;;;;;;0.93;74.67;96912.06;5033000;28;20069;-68
2020/12/26 01:38:55;;;;;;;32.22;4.50;;;;;;;0.90;74.27;96899.97;5033171;28;20064;-68
2020/12/26 01:41:22;;;;;;;25.10;4.03;;;;;;;0.97;74.46;96902.50;5032552;28;20235;-66
2020/12/26 01:43:55;;;;;;;26.90;4.10;;;;;;;1.00;74.52;96896.66;5032746;28;20529;-69
2020/12/26 01:46:26;;;;;;;30.17;4.30;;;;;;;0.98;74.98;96920.22;5031693;28;20108;-66
2020/12/26 01:48:52;;;;;;;26.10;4.57;;;;;;;0.98;75.14;96909.47;5032970;28;20046;-66
2020/12/26 01:51:19;;;;;;;30.52;4.47;;;;;;;0.99;75.36;96905.75;5032011;28;20415;-66
2020/12/26 01:53:46;;;;;;;20.38;4.13;;;;;;;1.00;75.67;96896.66;5032695;28;20045;-66
2020/12/26 01:56:12;;;;;;;22.95;4.40;;;;;;;0.99;75.61;96895.00;5032264;28;20050;-66
2020/12/26 01:58:42;;;;;;;40.28;4.93;;;;;;;1.00;75.74;96896.66;5032539;28;20053;-66
2020/12/26 02:01:08;;;;;;;26.55;4.28;;;;;;;0.96;75.60;96906.25;5032272;28;20132;-67
2020/12/26 02:03:34;;;;;;;32.38;4.90;;;;;;;0.93;75.56;96904.03;5032504;28;20045;-66
2020/12/26 02:06:00;;;;;;;35.13;4.60;;;;;;;0.90;74.69;96905.34;5032653;28;20132;-66
2020/12/26 02:08:26;;;;;;;36.70;5.22;;;;;;;0.94;74.53;96905.66;5031974;28;20125;-66
2020/12/26 02:10:52;;;;;;;31.67;4.75;;;;;;;0.94;74.82;96906.50;5032676;28;20041;-66
2020/12/26 02:13:18;;;;;;;40.78;5.18;;;;;;;0.98;74.34;96909.47;5031863;28;20107;-66
2020/12/26 02:15:45;;;;;;;46.88;5.82;;;;;;;0.97;74.32;96907.84;5033614;28;20045;-66
2020/12/26 02:18:11;;;;;;;27.83;5.47;;;;;;;0.98;74.76;96890.72;5031652;28;20045;-66
2020/12/26 02:20:37;;;;;;;29.88;5.22;;;;;;;0.96;74.89;96890.16;5032223;28;20103;-66
2020/12/26 02:23:04;;;;;;;30.08;4.95;;;;;;;0.99;74.89;96895.00;5031541;28;20137;-66
2020/12/26 02:25:30;;;;;;;40.72;4.97;;;;;;;0.95;74.99;96897.38;5032205;28;20041;-66
2020/12/26 02:27:56;;;;;;;26.17;4.93;;;;;;;0.90;75.23;96897.31;5032231;28;20046;-66
2020/12/26 02:30:22;;;;;;;40.20;5.22;;;;;;;0.83;74.94;96901.19;5031661;28;20041;-67
2020/12/26 02:32:48;;;;;;;26.73;5.35;;;;;;;0.82;75.12;96904.91;5031909;28;20497;-66
2020/12/26 02:35:14;;;;;;;35.20;4.97;;;;;;;0.77;74.50;96908.31;5031507;28;20532;-66
2020/12/26 02:37:40;;;;;;;26.23;4.85;;;;;;;0.74;74.35;96920.34;5031960;28;20501;-66
2020/12/26 02:40:06;;;;;;;26.60;4.75;;;;;;;0.76;74.71;96912.06;5031503;28;20108;-68
2020/12/26 02:42:33;;;;;;;30.92;4.95;;;;;;;0.80;75.01;96910.53;5031728;28;20045;-66
2020/12/26 02:44:59;;;;;;;30.73;4.70;;;;;;;0.78;74.76;96905.41;5031945;28;20134;-66
2020/12/26 02:47:25;;;;;;;38.35;5.53;;;;;;;0.76;74.96;96918.22;5045240;28;20489;-66
2020/12/26 02:49:51;;;;;;;23.20;4.53;;;;;;;0.80;74.96;96929.31;5051771;28;20550;-66
2020/12/26 02:52:17;;;;;;;26.00;4.60;;;;;;;0.78;74.52;96926.88;5051134;28;20556;-66
2020/12/26 02:54:43;;;;;;;32.22;4.45;;;;;;;0.75;73.95;96927.34;5051604;28;20515;-67
2020/12/26 02:57:08;;;;;;;28.90;4.45;;;;;;;0.72;73.19;96935.03;5051177;28;20827;-67
2020/12/26 02:59:35;;;;;;;35.55;4.65;;;;;;;0.73;73.49;96931.28;5051602;28;20408;-67
2020/12/26 03:02:01;;;;;;;25.15;4.40;;;;;;;0.74;72.89;96928.41;5050386;28;20076;-67
2020/12/26 03:04:27;;;;;;;40.75;5.28;;;;;;;0.67;73.19;96937.63;5051193;28;20065;-66
2020/12/26 03:06:54;;;;;;;25.20;4.32;;;;;;;0.73;73.50;96934.81;5051218;28;20056;-66
2020/12/26 03:09:20;;;;;;;26.55;4.82;;;;;;;0.72;73.82;96933.16;5050866;28;20451;-66
2020/12/26 03:11:46;;;;;;;39.20;5.75;;;;;;;0.68;74.80;96937.41;5051480;28;20073;-66
2020/12/26 03:14:12;;;;;;;25.13;4.85;;;;;;;0.54;75.30;96930.72;5050866;28;20447;-68
2020/12/26 03:16:39;;;;;;;35.50;5.13;;;;;;;0.51;75.65;96926.63;5042963;28;20489;-66
2020/12/26 03:19:05;;;;;;;18.38;4.10;;;;;;;0.42;76.19;96940.66;5030786;28;20741;-67
2020/12/26 03:21:31;;;;;;;29.95;5.18;;;;;;;0.44;76.69;96941.22;5031243;28;20049;-66
2020/12/26 03:23:57;;;;;;;31.75;5.85;;;;;;;0.35;76.44;96948.81;5031194;28;20041;-66
2020/12/26 03:26:23;;;;;;;32.78;5.28;;;;;;;0.30;76.31;96958.63;5030770;28;20046;-66
2020/12/26 03:28:49;;;;;;;42.55;5.50;;;;;;;0.33;76.63;96966.19;5031311;28;20127;-66
2020/12/26 03:31:15;;;;;;;32.05;5.47;;;;;;;0.33;76.34;96966.19;5030661;28;20053;-66
2020/12/26 03:33:42;;;;;;;30.55;4.80;;;;;;;0.27;76.25;96975.19;5030889;28;20056;-66
2020/12/26 03:36:08;;;;;;;29.10;5.00;;;;;;;0.33;76.45;96976.91;5030632;28;20049;-66
2020/12/26 03:38:33;;;;;;;44.88;5.63;;;;;;;0.35;76.57;96975.63;5030875;28;20503;-66
2020/12/26 03:41:00;;;;;;;30.48;4.93;;;;;;;0.31;76.70;96968.28;5030927;28;20103;-66
2020/12/26 03:43:26;;;;;;;33.92;4.93;;;;;;;0.20;75.54;96968.09;5030584;28;20038;-66
2020/12/26 03:45:52;;;;;;;48.60;5.50;;;;;;;0.10;75.38;96967.88;5031255;28;20099;-66
2020/12/26 03:48:18;;;;;;;28.05;4.75;;;;;;;0.09;75.98;96971.59;5030364;28;20045;-66
2020/12/26 03:50:45;;;;;;;26.80;4.93;;;;;;;0.14;75.96;96969.03;5030891;28;20571;-66
2020/12/26 03:53:11;;;;;;;45.17;5.63;;;;;;;0.14;76.01;96969.03;5030290;28;20057;-66
2020/12/26 03:55:37;;;;;;;35.17;5.18;;;;;;;0.16;76.03;96966.94;5030872;28;20047;-66
2020/12/26 03:58:02;;;;;;;32.88;5.00;;;;;;;0.18;76.50;96969.38;5030310;28;20455;-67
2020/12/26 04:00:28;;;;;;;43.17;4.95;;;;;;;0.22;75.89;96960.66;5030873;28;20447;-66
2020/12/26 04:02:54;;;;;;;32.47;4.50;;;;;;;0.32;75.92;96967.25;5030808;28;20053;-66
2020/12/26 04:05:21;;;;;;;31.48;4.60;;;;;;;0.35;75.32;96961.41;5030364;28;20132;-66
2020/12/26 04:07:48;;;;;;;27.73;4.40;;;;;;;0.37;74.97;96956.66;5030564;28;20101;-66
2020/12/26 04:10:14;;;;;;;33.95;4.90;;;;;;;0.33;75.57;96966.19;5030387;28;20045;-66
2020/12/26 04:12:40;;;;;;;31.90;4.82;;;;;;;0.22;75.24;96971.34;5031386;28;20049;-66
2020/12/26 04:15:06;;;;;;;24.55;4.38;;;;;;;0.28;75.33;96984.84;5034255;28;20459;-66
2020/12/26 04:17:32;;;;;;;30.48;4.30;;;;;;;0.31;75.41;96979.00;5049954;28;20451;-66
2020/12/26 04:19:58;;;;;;;27.42;4.78;;;;;;;0.29;75.81;96986.47;5054662;28;20102;-66
2020/12/26 04:22:24;;;;;;;40.92;5.07;;;;;;;0.23;76.14;96983.69;5053865;28;20045;-68
2020/12/26 04:24:51;;;;;;;27.30;4.78;;;;;;;0.24;75.74;96990.66;5054570;28;20053;-66
2020/12/26 04:27:17;;;;;;;16.73;4.57;;;;;;;0.20;75.85;96988.69;5053883;28;20045;-66
2020/12/26 04:29:43;;;;;;;26.90;4.88;;;;;;;0.15;75.65;96994.75;5054283;28;20138;-66
2020/12/26 04:32:09;;;;;;;34.28;4.85;;;;;;;0.20;75.67;96999.41;5053831;28;20053;-66
2020/12/26 04:34:35;;;;;;;31.58;4.38;;;;;;;0.11;75.02;97004.34;5054240;28;20047;-66
2020/12/26 04:37:01;;;;;;;24.55;4.40;;;;;;;0.20;75.13;96997.53;5054226;28;20041;-66
2020/12/26 04:39:27;;;;;;;39.65;5.45;;;;;;;0.28;74.91;97003.59;5053844;28;20045;-66
2020/12/26 04:41:54;;;;;;;29.05;4.55;;;;;;;0.28;74.71;96998.25;5054212;28;20075;-66
2020/12/26 04:44:21;;;;;;;34.50;4.88;;;;;;;0.25;74.18;96997.66;5053569;28;20053;-66
2020/12/26 04:46:50;;;;;;;34.55;5.35;;;;;;;0.25;74.80;97003.00;5052165;28;20049;-66
2020/12/26 04:49:18;;;;;;;35.63;4.85;;;;;;;0.24;74.23;96996.03;5053742;28;20045;-66
2020/12/26 04:51:44;;;;;;;39.33;5.03;;;;;;;0.24;74.06;96996.03;5053825;28;20045;-66
2020/12/26 04:54:19;;;;;;;27.95;4.50;;;;;;;0.20;74.24;97010.13;5053577;28;20057;-66
2020/12/26 04:56:45;;;;;;;20.30;4.30;;;;;;;0.17;74.80;97014.09;5053812;28;20045;-66
2020/12/26 04:59:13;;;;;;;27.75;4.57;;;;;;;0.19;75.21;97003.97;5053557;28;20071;-66
2020/12/26 05:01:40;;;;;;;33.20;4.90;;;;;;;0.16;75.70;97009.81;5053749;28;20055;-66
2020/12/26 05:04:07;;;;;;;25.70;4.05;;;;;;;0.20;73.34;97027.00;5053208;28;20044;-67
2020/12/26 05:06:44;;;;;;;22.73;4.65;;;;;;;0.19;73.78;97030.75;5053692;28;20045;-66
2020/12/26 05:09:10;;;;;;;30.50;5.10;;;;;;;0.23;74.88;97036.44;5053289;28;20411;-66
2020/12/26 05:11:36;;;;;;;43.13;5.40;;;;;;;0.25;75.24;97051.22;5053475;28;20076;-66
2020/12/26 05:14:06;;;;;;;26.08;4.65;;;;;;;0.29;74.93;97048.91;5053083;28;20106;-67
2020/12/26 05:16:33;;;;;;;35.70;5.00;;;;;;;0.35;74.42;97057.84;5051626;28;20053;-66
2020/12/26 05:18:59;;;;;;;25.48;4.43;;;;;;;0.29;74.47;97056.13;5053469;28;20052;-65
2020/12/26 05:21:25;;;;;;;31.02;5.47;;;;;;;0.30;74.68;97052.38;5052887;28;20439;-68
2020/12/26 05:24:03;;;;;;;34.05;5.97;;;;;;;0.30;74.08;97057.75;5053268;28;20167;-68
2020/12/26 05:26:30;;;;;;;41.10;5.60;;;;;;;0.34;73.61;97058.91;5052838;28;20443;-65
2020/12/26 05:29:00;;;;;;;27.13;4.82;;;;;;;0.36;74.27;97068.31;5053195;28;20136;-66
2020/12/26 05:34:21;;;;;;;22.20;4.57;;;;;;;0.25;73.77;97048.53;5069546;27;20357;-66
2020/12/26 05:36:47;;;;;;;24.85;4.75;;;;;;;0.27;74.24;97052.88;5068264;28;20044;-67
2020/12/26 05:39:14;;;;;;;30.77;4.90;;;;;;;0.27;73.77;97052.88;5067787;28;20107;-67
2020/12/26 05:41:42;;;;;;;34.97;5.60;;;;;;;0.24;74.20;97060.31;5068175;28;20056;-67
2020/12/26 05:44:08;;;;;;;30.17;5.40;;;;;;;0.21;74.31;97066.16;5067582;28;20048;-67
2020/12/26 05:46:34;;;;;;;36.67;6.22;;;;;;;0.21;74.65;97060.00;5067861;28;20037;-67
2020/12/26 05:49:22;;;;;;;42.50;6.43;;;;;;;0.24;74.91;97060.31;5068048;28;20075;-67
2020/12/26 05:51:50;;;;;;;33.88;5.72;;;;;;;0.21;74.96;97070.69;5067994;28;20124;-67
2020/12/26 05:54:18;;;;;;;40.35;6.57;;;;;;;0.21;74.94;97076.88;5067367;28;20049;-67
2020/12/26 05:56:44;;;;;;;35.08;6.38;;;;;;;0.23;75.26;97085.47;5067981;28;20044;-67
2020/12/26 05:59:23;;;;;;;36.80;6.38;;;;;;;0.15;75.34;97085.81;5067334;28;20483;-67
2020/12/26 06:01:49;;;;;;;31.27;6.57;;;;;;;0.11;75.27;97091.91;5068038;28;20403;-67
2020/12/26 06:04:19;;;;;;;38.00;6.18;;;;;;;0.08;75.74;97087.81;5067362;28;20079;-67
2020/12/26 06:06:51;;;;;;;18.23;5.65;;;;;;;0.10;75.96;97091.06;5067796;28;20040;-67
2020/12/26 06:09:19;;;;;;;36.08;6.78;;;;;;;0.04;75.66;97092.00;5067237;28;20072;-67
2020/12/26 06:11:46;;;;;;;30.75;6.85;;;;;;;0.01;76.60;97089.78;5067652;28;20049;-67
2020/12/26 06:14:17;;;;;;;20.55;6.45;;;;;;;0.07;76.55;97096.91;5067010;28;20067;-67
2020/12/26 06:16:48;;;;;;;31.27;6.75;;;;;;;0.08;76.04;97093.16;5067321;28;20048;-66
2020/12/26 06:19:17;;;;;;;29.52;6.63;;;;;;;0.12;75.68;97088.97;5066993;28;20057;-67
2020/12/26 06:21:45;;;;;;;40.67;6.85;;;;;;;0.23;75.65;97098.88;5067376;28;20045;-67
2020/12/26 06:24:13;;;;;;;31.33;7.57;;;;;;;0.27;75.60;97101.09;5066945;28;20052;-67
2020/12/26 06:26:45;;;;;;;25.92;6.85;;;;;;;0.27;75.45;97101.91;5067406;28;20526;-66
2020/12/26 06:29:15;;;;;;;33.83;6.70;;;;;;;0.21;75.91;97103.66;5066915;28;20652;-67
2020/12/26 06:31:44;;;;;;;40.42;7.00;;;;;;;0.21;75.86;97106.34;5067236;28;20068;-67
2020/12/26 06:34:11;;;;;;;22.95;5.65;;;;;;;0.29;75.78;97098.97;5066345;28;20515;-67
2020/12/26 06:36:37;;;;;;;34.30;7.13;;;;;;;0.27;75.04;97090.38;5066800;28;20055;-66
2020/12/26 06:39:30;;;;;;;25.67;6.88;;;;;;;0.32;75.30;97091.31;5066623;28;20056;-67
2020/12/26 06:42:17;;;;;;;37.17;6.53;;;;;;;0.36;74.78;97096.97;5066958;28;20041;-67
2020/12/26 06:44:44;;;;;;;33.30;6.13;;;;;;;0.40;74.66;97096.28;5058775;28;20037;-67
2020/12/26 06:47:34;;;;;;;30.23;6.30;;;;;;;0.35;73.97;97098.03;5052978;28;20183;-67
2020/12/26 06:50:22;;;;;;;22.08;5.45;;;;;;;0.30;73.60;97105.97;5053653;28;20479;-67
2020/12/26 06:52:49;;;;;;;36.08;6.45;;;;;;;0.19;72.67;97103.06;5053377;28;20041;-67
2020/12/26 06:55:39;;;;;;;35.92;5.75;;;;;;;0.21;71.84;97109.00;5053131;28;20535;-67
2020/12/26 06:58:07;;;;;;;30.80;4.80;;;;;;;0.18;71.27;97106.78;5052757;28;20454;-67
2020/12/26 07:00:33;;;;;;;32.60;5.50;;;;;;;0.18;70.94;97103.31;5053377;28;20178;-67
2020/12/26 07:03:16;;;;;;;26.58;4.75;;;;;;;0.18;69.98;97103.31;5053638;28;20092;-66
2020/12/26 07:05:43;;;;;;;22.02;4.55;;;;;;;0.20;69.66;97111.91;5053312;28;20536;-67
2020/12/26 07:08:19;;;;;;;47.38;5.65;;;;;;;0.21;69.50;97114.38;5052786;28;20531;-67
2020/12/26 07:10:45;;;;;;;30.83;5.05;;;;;;;0.19;69.96;97121.81;5053459;28;20045;-67
2020/12/26 07:13:11;;;;;;;31.25;4.30;;;;;;;0.28;70.30;97124.16;5052702;28;20488;-67
2020/12/26 07:15:37;;;;;;;38.35;5.13;;;;;;;0.33;70.63;97132.31;5052998;28;20484;-67
2020/12/26 07:18:24;;;;;;;37.97;5.20;;;;;;;0.40;71.04;97138.34;5052779;28;20484;-67
2020/12/26 07:20:51;;;;;;;27.15;4.78;;;;;;;0.41;70.68;97139.97;5048057;28;20091;-67
2020/12/26 07:23:17;;;;;;;31.92;5.45;;;;;;;0.38;70.22;97146.63;5052558;28;20072;-67
2020/12/26 07:25:43;;;;;;;27.67;6.00;;;;;;;0.37;70.64;97152.22;5052968;28;20408;-67
2020/12/26 07:28:13;;;;;;;33.15;5.25;;;;;;;0.41;70.70;97156.03;5052450;28;20130;-66
2020/12/26 07:30:39;;;;;;;30.02;5.43;;;;;;;0.45;70.80;97154.53;5053038;28;20048;-67
2020/12/26 07:33:05;;;;;;;28.25;6.30;;;;;;;0.48;71.11;97162.13;5052223;28;20158;-67
2020/12/26 07:35:42;;;;;;;44.15;7.20;;;;;;;0.42;71.93;97160.38;5052713;28;20079;-67
2020/12/26 07:38:12;;;;;;;36.47;7.18;;;;;;;0.46;71.90;97164.19;5052314;28;20056;-67
2020/12/26 07:40:39;;;;;;;35.58;6.82;;;;;;;0.47;72.11;97152.41;5052563;28;20562;-67
2020/12/26 07:43:09;;;;;;;32.05;6.97;;;;;;;0.48;71.66;97156.75;5052246;28;20049;-67
2020/12/26 07:45:35;;;;;;;38.47;8.20;;;;;;;0.46;72.10;97169.56;5052322;28;20045;-67
2020/12/26 07:48:02;;;;;;;30.48;7.80;;;;;;;0.36;72.09;97170.13;5051300;28;20118;-69
2020/12/26 07:50:30;;;;;;;37.30;8.25;;;;;;;0.39;72.63;97176.91;5052471;28;20037;-67
2020/12/26 07:52:58;;;;;;;33.95;7.72;;;;;;;0.33;72.23;97169.81;5052331;28;20052;-66
2020/12/26 07:55:27;;;;;;;25.25;8.07;;;;;;;0.34;72.72;97168.75;5051428;28;20408;-67
2020/12/26 07:58:00;;;;;;;27.00;7.60;;;;;;;0.24;72.91;97183.53;5052055;28;20045;-66
2020/12/26 08:00:28;;;;;;;28.77;7.38;;;;;;;0.29;72.54;97171.31;5052209;28;20073;-67
2020/12/26 08:02:55;;;;;;;31.17;7.47;;;;;;;0.23;72.19;97181.09;5052380;28;20040;-67
2020/12/26 08:05:23;;;;;;;28.33;6.50;;;;;;;0.17;72.40;97176.66;5051672;28;20053;-67
2020/12/26 08:07:49;;;;;;;30.30;7.00;;;;;;;0.18;72.35;97184.47;5052338;28;20033;-66
2020/12/26 08:10:16;;;;;;;33.15;6.38;;;;;;;0.18;71.99;97187.13;5051661;28;20056;-66
2020/12/26 08:12:51;;;;;;;25.15;6.07;;;;;;;0.19;71.28;97196.81;5052179;28;20381;-66
2020/12/26 08:15:24;;;;;;;37.53;7.28;;;;;;;0.21;71.70;97183.19;5051582;28;20171;-67
2020/12/26 08:17:56;;;;;;;36.88;7.35;;;;;;;0.28;72.04;97183.06;5051686;28;20044;-67
2020/12/26 08:20:23;;;;;;;34.55;6.82;;;;;;;0.30;71.18;97181.78;5051317;28;20121;-67
2020/12/26 08:22:50;;;;;;;34.90;6.97;;;;;;;0.39;71.71;97179.59;5052003;28;20044;-67
2020/12/26 08:25:18;;;;;;;21.65;5.10;;;;;;;0.37;69.56;97187.88;5051452;28;20082;-67
2020/12/26 08:27:45;;;;;;;12.95;4.32;;;;;;;0.31;68.03;97190.63;5051895;28;20136;-67
2020/12/26 08:30:14;;;;;;;24.10;3.40;;;;;;;0.29;64.54;97187.38;5051154;28;20503;-67
2020/12/26 08:32:56;;;;;;;23.50;2.92;;;;;;;0.26;61.14;97185.97;5051555;28;20045;-67
2020/12/26 08:35:25;;;;;;;26.85;2.38;;;;;;;0.14;57.69;97185.16;5051119;28;20160;-67
2020/12/26 08:37:59;;;;;;;21.17;2.22;;;;;;;0.18;57.96;97195.19;5051549;28;20650;-66
2020/12/26 08:40:25;;;;;;;22.17;3.05;;;;;;;0.17;58.84;97193.53;5051201;28;20053;-67
2020/12/26 08:42:52;;;;;;;20.27;2.47;;;;;;;0.18;59.00;97187.13;5051448;28;20056;-67
2020/12/26 08:45:28;;;;;;;24.20;2.38;;;;;;;0.23;58.52;97195.28;5050962;28;20409;-67
2020/12/26 08:47:58;;;;;;;24.80;2.63;;;;;;;0.24;56.78;97198.78;5051074;28;20566;-67
2020/12/26 08:50:25;;;;;;;20.08;2.92;;;;;;;0.27;56.47;97200.19;5050924;28;20044;-66
2020/12/26 08:53:03;;;;;;;27.70;2.55;;;;;;;0.18;56.74;97208.56;5051350;28;20051;-66
2020/12/26 08:55:29;;;;;;;31.33;3.08;;;;;;;0.23;57.88;97207.88;5051213;28;20052;-66
2020/12/26 08:57:58;;;;;;;21.90;2.63;;;;;;;0.37;59.37;97216.53;5051447;28;20037;-66
2020/12/26 09:00:27;;;;;;;25.48;3.35;;;;;;;0.48;58.93;97218.38;5050535;28;20036;-67
2020/12/26 09:02:55;;;;;;;15.18;3.05;;;;;;;0.41;58.01;97220.34;5051351;28;20098;-66
2020/12/26 09:05:22;;;;;;;24.15;2.45;;;;;;;0.45;57.21;97221.53;5050613;28;20094;-67
2020/12/26 09:07:48;;;;;;;34.95;3.03;;;;;;;0.37;56.08;97219.19;5050918;28;20075;-66
2020/12/26 09:10:14;;;;;;;29.42;2.95;;;;;;;0.29;58.24;97217.66;5050623;28;20048;-67
2020/12/26 09:12:42;;;;;;;26.67;3.33;;;;;;;0.04;58.64;97215.16;5050910;28;20049;-67
2020/12/26 09:15:08;;;;;;;20.05;2.58;;;;;;;-0.06;59.58;97214.91;5050579;28;20064;-67
2020/12/26 09:17:35;;;;;;;26.67;3.08;;;;;;;0.03;60.40;97218.09;5050755;28;20500;-67
2020/12/26 09:20:01;;;;;;;27.13;3.05;;;;;;;-0.01;59.35;97218.53;5050976;28;20044;-67
2020/12/26 09:22:29;;;;;;;34.20;3.75;;;;;;;-0.03;58.89;97211.78;5050777;28;20044;-67
2020/12/26 09:24:55;;;;;;;25.50;3.60;;;;;;;0.03;59.00;97223.44;5050981;28;20041;-66
2020/12/26 09:27:21;;;;;;;23.27;2.92;;;;;;;-0.14;59.91;97221.44;5050437;28;20103;-66
2020/12/26 09:29:51;;;;;;;11.77;2.47;;;;;;;0.00;58.50;97219.38;5050946;28;20052;-66
2020/12/26 09:32:17;;;;;;;38.60;3.63;;;;;;;0.11;58.43;97218.59;5050149;28;20061;-67
2020/12/26 09:34:44;;;;;;;29.60;3.28;;;;;;;0.33;58.07;97215.34;5050927;28;20052;-66
2020/12/26 09:37:10;;;;;;;36.42;3.75;;;;;;;0.37;59.94;97224.56;5050274;28;20053;-67
2020/12/26 09:39:38;;;;;;;38.78;3.58;;;;;;;0.55;60.53;97219.09;5050787;28;20416;-66
2020/12/26 09:42:05;;;;;;;32.58;3.50;;;;;;;0.60;60.09;97208.47;5050373;28;20454;-67
2020/12/26 09:44:31;;;;;;;33.80;3.55;;;;;;;0.54;58.66;97208.59;5050793;28;20086;-66
2020/12/26 09:46:59;;;;;;;24.13;2.75;;;;;;;0.19;57.88;97206.69;5050487;28;20049;-66
2020/12/26 09:49:25;;;;;;;26.08;3.15;;;;;;;0.33;57.57;97207.31;5050244;28;20040;-66
2020/12/26 09:51:52;;;;;;;28.80;2.90;;;;;;;0.35;58.05;97210.56;5050756;28;20091;-66
2020/12/26 09:54:18;;;;;;;35.35;3.15;;;;;;;0.41;57.50;97206.94;5050029;28;20496;-66
2020/12/26 09:56:44;;;;;;;23.60;2.70;;;;;;;0.19;55.20;97202.16;5050554;28;20041;-66
2020/12/26 09:59:10;;;;;;;26.08;2.70;;;;;;;0.30;55.19;97197.84;5049911;28;20041;-67
2020/12/26 10:01:36;;;;;;;34.28;2.90;;;;;;;0.50;54.23;97194.84;5050523;28;20041;-66
2020/12/26 10:04:02;;;;;;;35.42;3.13;;;;;;;0.63;56.70;97191.94;5050089;28;20051;-67
2020/12/26 10:06:28;;;;;;;30.60;3.03;;;;;;;0.66;54.41;97190.63;5050511;28;20511;-66
2020/12/26 10:08:55;;;;;;;34.58;2.90;;;;;;;0.79;53.04;97185.06;5050508;28;20102;-66
2020/12/26 10:11:21;;;;;;;29.92;3.10;;;;;;;1.10;54.32;97174.94;5049977;28;20052;-66
2020/12/26 10:13:48;;;;;;;21.70;2.28;;;;;;;1.38;52.86;97166.94;5050393;28;20457;-66
2020/12/26 10:16:15;;;;;;;19.83;2.55;;;;;;;1.45;53.16;97166.78;5049541;28;20488;-66
2020/12/26 10:18:41;;;;;;;11.95;1.65;;;;;;;1.49;51.76;97163.38;5050200;28;20633;-67
2020/12/26 10:21:07;;;;;;;12.88;1.95;;;;;;;1.26;49.41;97158.94;5053528;28;20076;-67
2020/12/26 10:23:33;;;;;;;23.20;2.45;;;;;;;1.55;49.79;97158.91;5054075;28;20041;-66
2020/12/26 10:26:05;;;;;;;27.10;2.75;;;;;;;1.75;50.29;97161.16;5054071;28;20427;-66
2020/12/26 10:28:31;;;;;;;25.88;2.28;;;;;;;1.72;48.54;97162.47;5053644;28;20048;-66
2020/12/26 10:30:57;;;;;;;21.20;2.08;;;;;;;1.74;48.75;97152.28;5053751;28;20048;-66
2020/12/26 10:33:23;;;;;;;37.13;2.85;;;;;;;1.77;50.17;97154.47;5053106;28;20048;-66
2020/12/26 10:35:49;;;;;;;31.75;2.90;;;;;;;2.00;49.61;97150.03;5053790;28;20419;-66
2020/12/26 10:38:15;;;;;;;17.73;1.90;;;;;;;1.88;48.87;97149.28;5053301;28;20068;-67
2020/12/26 10:40:41;;;;;;;24.83;2.28;;;;;;;1.86;50.15;97148.72;5053748;28;20073;-66
2020/12/26 10:43:08;;;;;;;23.10;2.17;;;;;;;2.02;49.82;97156.78;5053342;28;20522;-67
2020/12/26 10:45:34;;;;;;;41.42;3.05;;;;;;;1.73;47.51;97153.34;5053551;28;20068;-66
2020/12/26 10:48:00;;;;;;;24.15;1.75;;;;;;;1.44;49.09;97155.22;5053574;28;20499;-66
2020/12/26 10:50:26;;;;;;;23.77;2.00;;;;;;;1.46;49.45;97150.47;5053300;28;20500;-66
2020/12/26 10:52:52;;;;;;;21.25;2.00;;;;;;;1.39;49.33;97157.81;5053705;28;20080;-66
2020/12/26 10:55:18;;;;;;;22.83;2.00;;;;;;;1.47;50.70;97153.94;5053120;28;20044;-66
2020/12/26 10:57:44;;;;;;;21.15;1.80;;;;;;;1.51;49.93;97155.06;5053645;28;20068;-66
2020/12/26 11:00:11;;;;;;;23.05;2.13;;;;;;;1.53;48.69;97147.63;5052978;28;20187;-67
2020/12/26 11:02:37;;;;;;;21.73;2.05;;;;;;;1.76;48.46;97152.84;5053361;28;20055;-66
2020/12/26 11:05:05;;;;;;;17.63;1.83;;;;;;;2.13;48.65;97143.50;5053108;28;20041;-66
2020/12/26 11:07:30;;;;;;;41.13;2.75;;;;;;;2.01;48.78;97139.03;5053278;28;20049;-66
2020/12/26 11:09:56;;;;;;;22.35;1.90;;;;;;;1.81;48.73;97139.50;5053228;28;20041;-66
2020/12/26 11:12:22;;;;;;;20.05;2.08;;;;;;;1.87;48.54;97136.91;5052905;28;20045;-66
2020/12/26 11:14:48;;;;;;;15.10;1.70;;;;;;;1.78;47.63;97145.38;5053157;28;20115;-66
2020/12/26 11:17:15;;;;;;;14.05;1.70;;;;;;;1.95;48.87;97131.97;5052268;28;20045;-67
2020/12/26 11:19:41;;;;;;;31.35;2.40;;;;;;;2.27;49.32;97142.13;5053130;28;20133;-66
2020/12/26 11:22:07;;;;;;;10.48;1.42;;;;;;;2.32;49.12;97129.59;5052690;28;20641;-67
2020/12/26 11:24:33;;;;;;;15.85;1.77;;;;;;;2.13;48.88;97133.56;5053193;28;20119;-66
2020/12/26 11:26:59;;;;;;;14.55;1.80;;;;;;;2.26;49.42;97130.56;5052972;28;20492;-66
2020/12/26 11:29:25;;;;;;;25.90;1.92;;;;;;;2.46;49.66;97134.63;5052419;28;20517;-66
2020/12/26 11:31:51;;;;;;;21.90;1.95;;;;;;;2.52;48.86;97126.38;5052782;28;20045;-66
2020/12/26 11:34:18;;;;;;;21.20;2.03;;;;;;;2.28;49.16;97133.81;5052072;28;20052;-67
2020/12/26 11:36:44;;;;;;;25.70;3.33;;;;;;;2.19;50.64;97124.53;5052748;28;20049;-66
2020/12/26 11:39:10;;;;;;;25.52;2.35;;;;;;;2.12;50.49;97129.28;5052324;28;20126;-66